createdAt,value
2023-04-16T00:00:04.695Z,0
2023-04-16T00:01:18.981Z,0
2023-04-16T00:02:33.376Z,0
2023-04-16T00:03:47.790Z,0
2023-04-16T00:05:02.122Z,0
2023-04-16T00:06:16.401Z,0
2023-04-16T00:07:30.674Z,0
2023-04-16T00:08:45.098Z,0
2023-04-16T00:09:59.403Z,0
2023-04-16T00:11:13.690Z,0
2023-04-16T00:12:27.971Z,0
2023-04-16T00:13:42.384Z,0
2023-04-16T00:14:56.712Z,0
2023-04-16T00:16:10.984Z,0
2023-04-16T00:17:25.269Z,0
2023-04-16T00:18:39.670Z,0
2023-04-16T00:19:54.001Z,0
2023-04-16T00:21:08.288Z,0
2023-04-16T00:22:22.556Z,0
2023-04-16T00:23:36.976Z,0
2023-04-16T00:24:51.288Z,0
2023-04-16T00:26:05.581Z,0
2023-04-16T00:27:19.993Z,0
2023-04-16T00:28:34.412Z,0
2023-04-16T00:29:48.738Z,0
2023-04-16T00:31:03.007Z,0
2023-04-16T00:32:17.421Z,0
2023-04-16T00:33:31.831Z,0
2023-04-16T00:34:46.140Z,0
2023-04-16T00:36:00.423Z,0
2023-04-16T00:37:14.705Z,0
2023-04-16T00:38:29.110Z,0
2023-04-16T00:39:43.448Z,0
2023-04-16T00:40:57.730Z,0
2023-04-16T00:42:11.997Z,0
2023-04-16T00:43:26.407Z,0
2023-04-16T00:44:40.730Z,0
2023-04-16T00:45:55.017Z,0
2023-04-16T00:47:09.287Z,0
2023-04-16T00:48:23.696Z,0
2023-04-16T00:49:38.027Z,0
2023-04-16T00:50:52.318Z,0
2023-04-16T00:52:06.719Z,0
2023-04-16T00:53:21.119Z,0
2023-04-16T00:54:35.445Z,0
2023-04-16T00:55:49.732Z,0
2023-04-16T00:57:04.003Z,0
2023-04-16T00:58:18.406Z,0
2023-04-16T00:59:32.733Z,0
2023-04-16T01:00:47.029Z,0
2023-04-16T01:02:01.303Z,0
2023-04-16T01:03:15.711Z,0
2023-04-16T01:04:30.038Z,0
2023-04-16T01:05:44.304Z,0
2023-04-16T01:06:58.723Z,0
2023-04-16T01:08:13.124Z,0
2023-04-16T01:09:27.444Z,0
2023-04-16T01:10:41.723Z,0
2023-04-16T01:11:56.020Z,0
2023-04-16T01:13:10.423Z,0
2023-04-16T01:14:24.748Z,0
2023-04-16T01:15:39.030Z,0
2023-04-16T01:16:53.310Z,0
2023-04-16T01:18:07.709Z,0
2023-04-16T01:19:22.030Z,0
2023-04-16T01:20:36.318Z,0
2023-04-16T01:21:50.592Z,0
2023-04-16T01:23:05.015Z,0
2023-04-16T01:24:19.335Z,0
2023-04-16T01:25:33.612Z,0
2023-04-16T01:26:48.013Z,0
2023-04-16T01:28:02.428Z,0
2023-04-16T01:29:16.754Z,0
2023-04-16T01:30:31.030Z,0
2023-04-16T01:32:59.725Z,0
2023-04-16T01:34:14.046Z,0
2023-04-16T01:35:28.320Z,0
2023-04-16T01:36:42.599Z,0
2023-04-16T01:37:57.003Z,0
2023-04-16T01:39:11.340Z,0
2023-04-16T01:40:25.621Z,0
2023-04-16T01:41:39.890Z,0
2023-04-16T01:42:54.312Z,0
2023-04-16T01:44:08.626Z,0
2023-04-16T01:45:22.913Z,0
2023-04-16T01:46:37.191Z,0
2023-04-16T01:47:51.594Z,0
2023-04-16T01:49:05.918Z,0
2023-04-16T01:50:20.212Z,0
2023-04-16T01:51:34.606Z,0
2023-04-16T01:52:49.021Z,0
2023-04-16T01:54:03.330Z,0
2023-04-16T01:55:17.629Z,0
2023-04-16T01:56:31.903Z,0
2023-04-16T01:57:46.317Z,0
2023-04-16T01:59:00.641Z,0
2023-04-16T02:00:14.921Z,0
2023-04-16T02:01:29.188Z,0
2023-04-16T02:02:43.611Z,0
2023-04-16T02:03:57.925Z,0
2023-04-16T02:06:26.491Z,0
2023-04-16T02:07:40.902Z,0
2023-04-16T02:08:55.221Z,0
2023-04-16T02:10:09.497Z,0
2023-04-16T02:11:23.911Z,0
2023-04-16T02:12:38.318Z,0
2023-04-16T02:13:52.634Z,0
2023-04-16T02:15:06.915Z,0
2023-04-16T02:16:21.199Z,0
2023-04-16T02:17:35.597Z,0
2023-04-16T02:18:49.930Z,0
2023-04-16T02:20:04.203Z,0
2023-04-16T02:21:18.487Z,0
2023-04-16T02:23:47.220Z,0
2023-04-16T02:25:01.501Z,0
2023-04-16T02:26:15.784Z,0
2023-04-16T02:27:30.200Z,0
2023-04-16T02:28:44.509Z,0
2023-04-16T02:29:58.800Z,0
2023-04-16T02:31:13.070Z,0
2023-04-16T02:32:27.486Z,0
2023-04-16T02:33:41.818Z,0
2023-04-16T02:34:56.095Z,0
2023-04-16T02:36:10.491Z,0
2023-04-16T02:37:24.899Z,0
2023-04-16T02:38:39.217Z,0
2023-04-16T02:39:53.000Z,0
2023-04-16T02:41:07.778Z,0
2023-04-16T02:42:22.205Z,0
2023-04-16T02:43:36.510Z,0
2023-04-16T02:44:50.808Z,0
2023-04-16T02:46:05.000Z,0
2023-04-16T02:47:19.486Z,0
2023-04-16T02:48:33.806Z,0
2023-04-16T02:49:48.087Z,0
2023-04-16T02:52:16.786Z,0
2023-04-16T02:53:31.099Z,0
2023-04-16T02:54:45.383Z,0
2023-04-16T02:55:59.800Z,0
2023-04-16T02:57:14.200Z,0
2023-04-16T02:58:28.523Z,0
2023-04-16T02:59:42.798Z,0
2023-04-16T03:00:57.076Z,0
2023-04-16T03:02:11.497Z,0
2023-04-16T03:03:25.817Z,0
2023-04-16T03:04:40.093Z,0
2023-04-16T03:05:54.378Z,0
2023-04-16T03:07:08.791Z,0
2023-04-16T03:08:23.107Z,0
2023-04-16T03:09:37.387Z,0
2023-04-16T03:10:51.664Z,0
2023-04-16T03:12:06.088Z,0
2023-04-16T03:13:20.406Z,0
2023-04-16T03:14:34.686Z,0
2023-04-16T03:15:48.958Z,0
2023-04-16T03:17:03.373Z,0
2023-04-16T03:18:17.703Z,0
2023-04-16T03:19:31.982Z,0
2023-04-16T03:20:46.381Z,0
2023-04-16T03:22:00.799Z,0
2023-04-16T03:23:15.113Z,0
2023-04-16T03:24:29.400Z,0
2023-04-16T03:25:43.680Z,0
2023-04-16T03:26:58.076Z,0
2023-04-16T03:28:12.413Z,0
2023-04-16T03:29:26.695Z,0
2023-04-16T03:30:40.965Z,0
2023-04-16T03:31:55.373Z,0
2023-04-16T03:33:09.709Z,0
2023-04-16T03:34:23.978Z,0
2023-04-16T03:35:38.263Z,0
2023-04-16T03:36:52.678Z,0
2023-04-16T03:38:07.002Z,0
2023-04-16T03:39:21.284Z,0
2023-04-16T03:40:35.683Z,0
2023-04-16T03:41:50.083Z,0
2023-04-16T03:43:04.405Z,0
2023-04-16T03:44:18.696Z,0
2023-04-16T03:45:32.970Z,0
2023-04-16T03:46:47.378Z,0
2023-04-16T03:48:01.707Z,0
2023-04-16T03:49:15.995Z,0
2023-04-16T03:50:30.273Z,0
2023-04-16T03:51:44.665Z,0
2023-04-16T03:52:59.003Z,0
2023-04-16T03:54:13.280Z,0
2023-04-16T03:55:27.607Z,0
2023-04-16T03:56:41.891Z,0
2023-04-16T03:57:56.286Z,0
2023-04-16T03:59:10.564Z,1
2023-04-16T04:00:24.916Z,1
2023-04-16T04:01:39.143Z,1
2023-04-16T04:02:53.370Z,2
2023-04-16T04:04:07.674Z,2
2023-04-16T04:05:21.968Z,0
2023-04-16T04:06:36.000Z,2
2023-04-16T04:07:50.424Z,2
2023-04-16T04:09:04.733Z,1
2023-04-16T04:10:18.971Z,2
2023-04-16T04:11:33.195Z,6
2023-04-16T04:12:47.425Z,5
2023-04-16T04:14:01.649Z,6
2023-04-16T04:15:15.943Z,7
2023-04-16T04:16:30.187Z,10
2023-04-16T04:17:44.551Z,12
2023-04-16T04:18:58.772Z,15
2023-04-16T04:20:12.988Z,18
2023-04-16T04:21:27.287Z,22
2023-04-16T04:22:41.545Z,28
2023-04-16T04:23:55.761Z,32
2023-04-16T04:25:09.994Z,34
2023-04-16T04:26:24.218Z,38
2023-04-16T04:27:38.508Z,38
2023-04-16T04:28:52.765Z,41
2023-04-16T04:30:06.989Z,56
2023-04-16T04:31:21.215Z,48
2023-04-16T04:33:49.730Z,65
2023-04-16T04:35:03.986Z,68
2023-04-16T04:36:18.212Z,82
2023-04-16T04:37:32.550Z,89
2023-04-16T04:38:46.782Z,100
2023-04-16T04:40:01.086Z,107
2023-04-16T04:41:15.327Z,142
2023-04-16T04:42:29.540Z,136
2023-04-16T04:43:43.776Z,163
2023-04-16T04:44:58.000Z,157
2023-04-16T04:46:12.294Z,168
2023-04-16T04:48:40.764Z,200
2023-04-16T04:49:54.988Z,181
2023-04-16T04:51:09.223Z,196
2023-04-16T04:52:23.518Z,228
2023-04-16T04:53:37.758Z,193
2023-04-16T04:54:51.988Z,212
2023-04-16T04:56:06.213Z,223
2023-04-16T04:58:34.736Z,209
2023-04-16T04:59:48.983Z,219
2023-04-16T05:01:03.325Z,267
2023-04-16T05:02:17.561Z,214
2023-04-16T05:03:31.784Z,195
2023-04-16T05:04:46.078Z,231
2023-04-16T05:06:00.325Z,225
2023-04-16T05:07:14.552Z,270
2023-04-16T05:08:28.780Z,245
2023-04-16T05:09:42.998Z,277
2023-04-16T05:10:57.298Z,262
2023-04-16T05:13:25.773Z,293
2023-04-16T05:14:40.149Z,343
2023-04-16T05:15:54.377Z,356
2023-04-16T05:17:08.669Z,353
2023-04-16T05:18:22.910Z,319
2023-04-16T05:19:37.140Z,333
2023-04-16T05:20:51.360Z,333
2023-04-16T05:22:05.737Z,371
2023-04-16T05:23:20.028Z,417
2023-04-16T05:24:34.273Z,466
2023-04-16T05:25:48.509Z,461
2023-04-16T05:27:02.722Z,497
2023-04-16T05:28:16.948Z,465
2023-04-16T05:29:31.247Z,471
2023-04-16T05:31:59.718Z,579
2023-04-16T05:33:13.949Z,704
2023-04-16T05:34:28.305Z,706
2023-04-16T05:35:42.591Z,718
2023-04-16T05:36:56.834Z,887
2023-04-16T05:38:11.067Z,734
2023-04-16T05:39:25.296Z,744
2023-04-16T05:40:39.523Z,765
2023-04-16T05:41:53.820Z,934
2023-04-16T05:43:08.061Z,864
2023-04-16T05:44:22.280Z,880
2023-04-16T05:45:36.514Z,981
2023-04-16T05:46:50.746Z,968
2023-04-16T05:48:05.045Z,944
2023-04-16T05:49:19.282Z,1123
2023-04-16T05:50:33.505Z,946
2023-04-16T05:51:47.883Z,868
2023-04-16T05:53:02.116Z,913
2023-04-16T05:54:16.399Z,746
2023-04-16T05:55:30.642Z,793
2023-04-16T05:56:44.991Z,751
2023-04-16T05:57:59.227Z,760
2023-04-16T05:59:13.451Z,871
2023-04-16T06:00:27.756Z,892
2023-04-16T06:01:41.988Z,959
2023-04-16T06:02:56.211Z,877
2023-04-16T06:04:10.447Z,1143
2023-04-16T06:05:24.673Z,1084
2023-04-16T06:06:38.963Z,1140
2023-04-16T06:07:53.208Z,1106
2023-04-16T06:09:07.435Z,1029
2023-04-16T06:10:21.675Z,941
2023-04-16T06:11:35.892Z,899
2023-04-16T06:12:50.200Z,1031
2023-04-16T06:14:04.429Z,927
2023-04-16T06:15:18.663Z,961
2023-04-16T06:16:33.018Z,1109
2023-04-16T06:17:47.238Z,1146
2023-04-16T06:19:01.532Z,1266
2023-04-16T06:20:15.781Z,1436
2023-04-16T06:21:29.000Z,1253
2023-04-16T06:22:44.230Z,1455
2023-04-16T06:23:58.456Z,1496
2023-04-16T06:25:12.763Z,1448
2023-04-16T06:26:26.992Z,1556
2023-04-16T06:27:41.229Z,1401
2023-04-16T06:28:55.450Z,1332
2023-04-16T06:30:09.672Z,1370
2023-04-16T06:31:23.975Z,1728
2023-04-16T06:32:38.225Z,1672
2023-04-16T06:33:52.564Z,1778
2023-04-16T06:35:06.789Z,1793
2023-04-16T06:36:21.017Z,1774
2023-04-16T06:37:35.316Z,1948
2023-04-16T06:38:49.570Z,1961
2023-04-16T06:40:03.793Z,2033
2023-04-16T06:41:18.020Z,1765
2023-04-16T06:43:46.536Z,1769
2023-04-16T06:45:00.792Z,2148
2023-04-16T06:46:15.018Z,2079
2023-04-16T06:47:29.228Z,2242
2023-04-16T06:49:57.768Z,2073
2023-04-16T06:51:12.011Z,2645
2023-04-16T06:52:26.239Z,2672
2023-04-16T06:53:40.465Z,2921
2023-04-16T06:54:54.693Z,2812
2023-04-16T06:56:08.994Z,2682
2023-04-16T06:57:23.218Z,2253
2023-04-16T06:58:37.447Z,2915
2023-04-16T06:59:51.676Z,2789
2023-04-16T07:01:06.023Z,2864
2023-04-16T07:02:20.325Z,3283
2023-04-16T07:03:34.561Z,3110
2023-04-16T07:04:48.796Z,3012
2023-04-16T07:06:03.025Z,3146
2023-04-16T07:07:17.245Z,3180
2023-04-16T07:08:31.546Z,3187
2023-04-16T07:09:45.782Z,2947
2023-04-16T07:12:14.267Z,2549
2023-04-16T07:13:28.471Z,2456
2023-04-16T07:14:42.763Z,2700
2023-04-16T07:17:11.241Z,2572
2023-04-16T07:18:25.586Z,2846
2023-04-16T07:19:39.818Z,2891
2023-04-16T07:20:54.114Z,3978
2023-04-16T07:22:08.356Z,3907
2023-04-16T07:24:36.814Z,3860
2023-04-16T07:25:51.028Z,3739
2023-04-16T07:27:05.337Z,4866
2023-04-16T07:28:19.586Z,4840
2023-04-16T07:29:33.802Z,4804
2023-04-16T07:30:48.021Z,5673
2023-04-16T07:32:02.254Z,6033
2023-04-16T07:33:16.557Z,6052
2023-04-16T07:34:30.798Z,4991
2023-04-16T07:35:45.175Z,4959
2023-04-16T07:36:59.393Z,6050
2023-04-16T07:38:13.625Z,6406
2023-04-16T07:39:27.916Z,6865
2023-04-16T07:40:42.171Z,7619
2023-04-16T07:41:56.523Z,7463
2023-04-16T07:43:10.756Z,6720
2023-04-16T07:44:24.992Z,6588
2023-04-16T07:45:39.279Z,6895
2023-04-16T07:46:53.533Z,7321
2023-04-16T07:48:07.753Z,7294
2023-04-16T07:49:21.987Z,7379
2023-04-16T07:50:36.347Z,7229
2023-04-16T07:51:50.647Z,6056
2023-04-16T07:53:04.885Z,6321
2023-04-16T07:54:19.125Z,7445
2023-04-16T07:55:33.467Z,8604
2023-04-16T07:58:01.992Z,8621
2023-04-16T07:59:16.235Z,8559
2023-04-16T08:00:30.454Z,7559
2023-04-16T08:01:44.680Z,7139
2023-04-16T08:02:58.912Z,6879
2023-04-16T08:04:13.211Z,6961
2023-04-16T08:05:27.463Z,8388
2023-04-16T08:06:41.689Z,8629
2023-04-16T08:07:55.917Z,8210
2023-04-16T08:09:10.132Z,8371
2023-04-16T08:10:24.440Z,8734
2023-04-16T08:11:38.670Z,7753
2023-04-16T08:12:52.903Z,7144
2023-04-16T08:14:07.141Z,9056
2023-04-16T08:15:21.355Z,10186
2023-04-16T08:16:35.658Z,10890
2023-04-16T08:17:49.896Z,10595
2023-04-16T08:19:04.125Z,9632
2023-04-16T08:20:18.351Z,10195
2023-04-16T08:21:32.584Z,11116
2023-04-16T08:22:46.888Z,10954
2023-04-16T08:24:01.118Z,11157
2023-04-16T08:25:15.350Z,10650
2023-04-16T08:26:29.724Z,10341
2023-04-16T08:27:43.954Z,10178
2023-04-16T08:28:58.237Z,11180
2023-04-16T08:30:12.490Z,9239
2023-04-16T08:31:26.719Z,7718
2023-04-16T08:32:40.944Z,9685
2023-04-16T08:33:55.160Z,11111
2023-04-16T08:36:23.716Z,12219
2023-04-16T08:37:37.941Z,10082
2023-04-16T08:38:52.153Z,9940
2023-04-16T08:40:06.390Z,9870
2023-04-16T08:41:20.689Z,24628
2023-04-16T08:42:34.936Z,22764
2023-04-16T08:43:49.165Z,12345
2023-04-16T08:45:03.379Z,10349
2023-04-16T08:46:17.604Z,9785
2023-04-16T08:47:31.909Z,8366
2023-04-16T08:48:46.153Z,8212
2023-04-16T08:50:00.385Z,9441
2023-04-16T08:51:14.613Z,6494
2023-04-16T08:52:28.838Z,4753
2023-04-16T08:53:43.000Z,6727
2023-04-16T08:54:57.377Z,9907
2023-04-16T08:56:11.590Z,11940
2023-04-16T08:57:25.876Z,15860
2023-04-16T08:58:39.210Z,17224
2023-04-16T08:59:53.502Z,11753
2023-04-16T09:01:06.787Z,11578
2023-04-16T09:02:21.012Z,10715
2023-04-16T09:04:49.566Z,12250
2023-04-16T09:06:03.794Z,11006
2023-04-16T09:07:18.014Z,8513
2023-04-16T09:08:32.248Z,7407
2023-04-16T09:09:46.550Z,4747
2023-04-16T09:11:00.788Z,5338
2023-04-16T09:12:15.014Z,4923
2023-04-16T09:13:29.225Z,4973
2023-04-16T09:14:43.457Z,4441
2023-04-16T09:15:57.754Z,4268
2023-04-16T09:17:12.012Z,5265
2023-04-16T09:18:26.231Z,6187
2023-04-16T09:19:40.460Z,5305
2023-04-16T09:20:54.692Z,4895
2023-04-16T09:22:08.982Z,6480
2023-04-16T09:23:23.220Z,8998
2023-04-16T09:24:37.458Z,9941
2023-04-16T09:25:51.675Z,8184
2023-04-16T09:27:05.914Z,9473
2023-04-16T09:28:20.210Z,8194
2023-04-16T09:29:34.439Z,7802
2023-04-16T09:30:48.669Z,6675
2023-04-16T09:32:02.965Z,6738
2023-04-16T09:33:16.250Z,6070
2023-04-16T09:34:30.502Z,5300
2023-04-16T09:35:44.720Z,6159
2023-04-16T09:36:58.956Z,6200
2023-04-16T09:38:13.177Z,6052
2023-04-16T09:39:27.472Z,7917
2023-04-16T09:40:41.710Z,10159
2023-04-16T09:41:55.947Z,10005
2023-04-16T09:43:10.177Z,11380
2023-04-16T09:45:38.700Z,11978
2023-04-16T09:46:52.932Z,11621
2023-04-16T09:48:07.171Z,10932
2023-04-16T09:49:21.380Z,9218
2023-04-16T09:50:35.630Z,8031
2023-04-16T09:51:49.906Z,7186
2023-04-16T09:53:04.156Z,8630
2023-04-16T09:54:18.380Z,8028
2023-04-16T09:55:32.616Z,5867
2023-04-16T09:56:46.835Z,5051
2023-04-16T09:58:01.135Z,4239
2023-04-16T09:59:15.372Z,4425
2023-04-16T10:00:29.610Z,4177
2023-04-16T10:01:43.827Z,4198
2023-04-16T10:02:58.056Z,4509
2023-04-16T10:04:12.406Z,4738
2023-04-16T10:05:26.703Z,3864
2023-04-16T10:06:39.995Z,2591
2023-04-16T10:07:54.217Z,2382
2023-04-16T10:09:08.514Z,2115
2023-04-16T10:10:22.764Z,2021
2023-04-16T10:11:36.991Z,3729
2023-04-16T10:12:51.219Z,5272
2023-04-16T10:14:05.430Z,4979
2023-04-16T10:15:19.736Z,3276
2023-04-16T10:16:33.979Z,2411
2023-04-16T10:17:48.213Z,2845
2023-04-16T10:19:02.428Z,2701
2023-04-16T10:20:16.669Z,2229
2023-04-16T10:21:30.955Z,2141
2023-04-16T10:22:45.203Z,4228
2023-04-16T10:23:59.417Z,4704
2023-04-16T10:25:13.657Z,3714
2023-04-16T10:26:27.874Z,3634
2023-04-16T10:27:42.190Z,3545
2023-04-16T10:28:56.428Z,4464
2023-04-16T10:30:10.649Z,5848
2023-04-16T10:31:24.865Z,6120
2023-04-16T10:32:39.096Z,6380
2023-04-16T10:33:53.392Z,6753
2023-04-16T10:35:07.639Z,6877
2023-04-16T10:36:21.862Z,5380
2023-04-16T10:37:36.155Z,4171
2023-04-16T10:38:49.493Z,3847
2023-04-16T10:40:03.761Z,3630
2023-04-16T10:41:17.054Z,3799
2023-04-16T10:42:31.297Z,4380
2023-04-16T10:43:45.579Z,5457
2023-04-16T10:44:59.820Z,5861
2023-04-16T10:46:14.049Z,6732
2023-04-16T10:47:28.281Z,6835
2023-04-16T10:48:42.514Z,6755
2023-04-16T10:49:56.814Z,6915
2023-04-16T10:51:11.050Z,6786
2023-04-16T10:52:25.283Z,6570
2023-04-16T10:53:39.506Z,6111
2023-04-16T10:54:53.728Z,6187
2023-04-16T10:56:08.022Z,7022
2023-04-16T10:57:22.271Z,6834
2023-04-16T10:58:36.498Z,5697
2023-04-16T10:59:50.723Z,5786
2023-04-16T11:01:04.938Z,6250
2023-04-16T11:03:33.486Z,7458
2023-04-16T11:04:47.720Z,7754
2023-04-16T11:06:02.060Z,7262
2023-04-16T11:07:16.282Z,7374
2023-04-16T11:08:30.599Z,7992
2023-04-16T11:09:44.823Z,7871
2023-04-16T11:10:59.051Z,8651
2023-04-16T11:12:13.285Z,10318
2023-04-16T11:13:27.505Z,10598
2023-04-16T11:14:41.820Z,10428
2023-04-16T11:15:56.059Z,10910
2023-04-16T11:17:10.271Z,11432
2023-04-16T11:18:24.505Z,10714
2023-04-16T11:19:38.735Z,10678
2023-04-16T11:20:53.034Z,10089
2023-04-16T11:22:07.265Z,11111
2023-04-16T11:23:21.506Z,11938
2023-04-16T11:24:35.723Z,12485
2023-04-16T11:25:49.950Z,13180
2023-04-16T11:27:04.248Z,13868
2023-04-16T11:28:18.492Z,12947
2023-04-16T11:29:32.730Z,12396
2023-04-16T11:30:46.948Z,12212
2023-04-16T11:32:01.164Z,12051
2023-04-16T11:33:15.465Z,8722
2023-04-16T11:34:29.720Z,8233
2023-04-16T11:35:43.942Z,8704
2023-04-16T11:36:58.173Z,9596
2023-04-16T11:38:12.389Z,9475
2023-04-16T11:39:26.690Z,9293
2023-04-16T11:40:40.942Z,8866
2023-04-16T11:41:55.173Z,8684
2023-04-16T11:43:09.398Z,8883
2023-04-16T11:44:23.610Z,9215
2023-04-16T11:45:37.914Z,8203
2023-04-16T11:46:52.165Z,8829
2023-04-16T11:48:06.391Z,7975
2023-04-16T11:50:34.838Z,8955
2023-04-16T11:51:49.204Z,9851
2023-04-16T11:53:03.476Z,11334
2023-04-16T11:54:17.759Z,10177
2023-04-16T11:55:31.062Z,9790
2023-04-16T11:56:45.367Z,9904
2023-04-16T11:57:59.597Z,9226
2023-04-16T11:59:13.830Z,8411
2023-04-16T12:00:28.048Z,7060
2023-04-16T12:01:42.278Z,6280
2023-04-16T12:02:56.576Z,8813
2023-04-16T12:04:10.816Z,8558
2023-04-16T12:05:25.036Z,7133
2023-04-16T12:06:39.275Z,8141
2023-04-16T12:07:53.507Z,9126
2023-04-16T12:09:07.790Z,9720
2023-04-16T12:10:22.050Z,10517
2023-04-16T12:12:50.483Z,8759
2023-04-16T12:14:04.711Z,7812
2023-04-16T12:15:19.020Z,8615
2023-04-16T12:16:33.250Z,8933
2023-04-16T12:17:47.494Z,9538
2023-04-16T12:19:01.709Z,12303
2023-04-16T12:20:15.000Z,15765
2023-04-16T12:21:30.247Z,10033
2023-04-16T12:22:44.477Z,8363
2023-04-16T12:23:58.699Z,10403
2023-04-16T12:25:12.937Z,11374
2023-04-16T12:26:27.210Z,11731
2023-04-16T12:27:41.528Z,13489
2023-04-16T12:28:55.795Z,10576
2023-04-16T12:30:09.155Z,12021
2023-04-16T12:31:22.482Z,13003
2023-04-16T12:32:36.774Z,14068
2023-04-16T12:33:50.068Z,10650
2023-04-16T12:35:04.292Z,9784
2023-04-16T12:36:18.587Z,9709
2023-04-16T12:37:32.835Z,9536
2023-04-16T12:38:47.067Z,10090
2023-04-16T12:40:01.277Z,10469
2023-04-16T12:41:15.512Z,10142
2023-04-16T12:42:29.809Z,10384
2023-04-16T12:43:44.044Z,8716
2023-04-16T12:44:58.289Z,6307
2023-04-16T12:46:12.502Z,5672
2023-04-16T12:47:26.725Z,5360
2023-04-16T12:48:41.028Z,5923
2023-04-16T12:51:09.498Z,3820
2023-04-16T12:52:23.727Z,3649
2023-04-16T12:53:37.960Z,3428
2023-04-16T12:54:52.247Z,4569
2023-04-16T12:56:06.486Z,4222
2023-04-16T12:57:20.717Z,3900
2023-04-16T12:58:34.944Z,3694
2023-04-16T12:59:49.176Z,3564
2023-04-16T13:01:03.470Z,4048
2023-04-16T13:02:17.710Z,4694
2023-04-16T13:03:31.934Z,4873
2023-04-16T13:04:46.230Z,4347
2023-04-16T13:05:59.566Z,4522
2023-04-16T13:07:13.847Z,5546
2023-04-16T13:08:28.123Z,6621
2023-04-16T13:09:42.405Z,6995
2023-04-16T13:10:55.770Z,7012
2023-04-16T13:12:10.050Z,7800
2023-04-16T13:13:23.339Z,8447
2023-04-16T13:14:37.560Z,8389
2023-04-16T13:15:51.873Z,7821
2023-04-16T13:17:06.115Z,8734
2023-04-16T13:18:20.330Z,8578
2023-04-16T13:19:34.554Z,9369
2023-04-16T13:20:48.781Z,9973
2023-04-16T13:22:03.091Z,11533
2023-04-16T13:23:17.338Z,10040
2023-04-16T13:24:31.559Z,9732
2023-04-16T13:25:45.776Z,8670
2023-04-16T13:27:00.007Z,8243
2023-04-16T13:28:14.317Z,9609
2023-04-16T13:29:28.545Z,9268
2023-04-16T13:30:42.771Z,8013
2023-04-16T13:31:57.002Z,7828
2023-04-16T13:33:11.235Z,8007
2023-04-16T13:34:25.520Z,8395
2023-04-16T13:35:39.773Z,8351
2023-04-16T13:36:53.991Z,7509
2023-04-16T13:38:08.223Z,7181
2023-04-16T13:39:22.455Z,7086
2023-04-16T13:40:36.746Z,6648
2023-04-16T13:41:50.994Z,6152
2023-04-16T13:43:05.220Z,5758
2023-04-16T13:44:19.511Z,5338
2023-04-16T13:45:32.849Z,5132
2023-04-16T13:46:47.132Z,6450
2023-04-16T13:48:00.430Z,7610
2023-04-16T13:49:14.644Z,7182
2023-04-16T13:50:28.947Z,6384
2023-04-16T13:51:43.191Z,7523
2023-04-16T13:52:57.426Z,8123
2023-04-16T13:54:11.637Z,6480
2023-04-16T13:55:25.875Z,5721
2023-04-16T13:56:40.180Z,5400
2023-04-16T13:57:54.422Z,4951
2023-04-16T13:59:08.643Z,3961
2023-04-16T14:00:22.872Z,3389
2023-04-16T14:01:37.083Z,3207
2023-04-16T14:02:51.382Z,3053
2023-04-16T14:04:05.632Z,3062
2023-04-16T14:05:19.864Z,3449
2023-04-16T14:06:34.083Z,3853
2023-04-16T14:07:48.313Z,3849
2023-04-16T14:09:02.605Z,4278
2023-04-16T14:10:16.851Z,4718
2023-04-16T14:11:31.087Z,5602
2023-04-16T14:12:45.302Z,6425
2023-04-16T14:13:59.540Z,6743
2023-04-16T14:15:13.837Z,6987
2023-04-16T14:16:28.072Z,6727
2023-04-16T14:17:42.309Z,5635
2023-04-16T14:18:56.587Z,4695
2023-04-16T14:20:09.885Z,4503
2023-04-16T14:21:24.117Z,4552
2023-04-16T14:22:38.350Z,5315
2023-04-16T14:23:52.580Z,6193
2023-04-16T14:25:06.801Z,6685
2023-04-16T14:26:21.093Z,7407
2023-04-16T14:27:35.338Z,7934
2023-04-16T14:28:49.561Z,7822
2023-04-16T14:30:03.795Z,7843
2023-04-16T14:31:18.023Z,7814
2023-04-16T14:32:32.332Z,8189
2023-04-16T14:33:46.565Z,7784
2023-04-16T14:35:00.798Z,7734
2023-04-16T14:36:15.010Z,7525
2023-04-16T14:37:29.251Z,7372
2023-04-16T14:38:43.533Z,6012
2023-04-16T14:39:57.787Z,5081
2023-04-16T14:41:12.015Z,4721
2023-04-16T14:42:26.242Z,4739
2023-04-16T14:43:40.458Z,4817
2023-04-16T14:44:54.756Z,5485
2023-04-16T14:46:09.012Z,5719
2023-04-16T14:47:23.226Z,5811
2023-04-16T14:48:37.447Z,6204
2023-04-16T14:49:51.674Z,6193
2023-04-16T14:51:06.045Z,5666
2023-04-16T14:52:20.333Z,4962
2023-04-16T14:53:33.615Z,4749
2023-04-16T14:54:47.838Z,4661
2023-04-16T14:56:02.151Z,4456
2023-04-16T14:57:16.378Z,3968
2023-04-16T14:58:30.609Z,3409
2023-04-16T14:59:44.848Z,3481
2023-04-16T15:00:59.057Z,3516
2023-04-16T15:02:13.364Z,4045
2023-04-16T15:03:27.602Z,4695
2023-04-16T15:04:41.836Z,4791
2023-04-16T15:05:56.056Z,4429
2023-04-16T15:07:10.289Z,4194
2023-04-16T15:08:24.595Z,3841
2023-04-16T15:09:38.826Z,3735
2023-04-16T15:10:53.060Z,3654
2023-04-16T15:12:07.282Z,3282
2023-04-16T15:13:21.500Z,3070
2023-04-16T15:14:35.805Z,2839
2023-04-16T15:15:50.053Z,3219
2023-04-16T15:17:04.282Z,3546
2023-04-16T15:18:18.493Z,3579
2023-04-16T15:19:32.717Z,3494
2023-04-16T15:20:47.025Z,3680
2023-04-16T15:22:01.271Z,3876
2023-04-16T15:23:15.486Z,4221
2023-04-16T15:24:29.782Z,4748
2023-04-16T15:25:43.082Z,4834
2023-04-16T15:26:57.318Z,5336
2023-04-16T15:28:11.552Z,5559
2023-04-16T15:29:25.776Z,5471
2023-04-16T15:30:39.987Z,5442
2023-04-16T15:31:54.297Z,5225
2023-04-16T15:33:08.528Z,4880
2023-04-16T15:34:22.771Z,4889
2023-04-16T15:35:36.984Z,4685
2023-04-16T15:36:51.220Z,4547
2023-04-16T15:38:05.519Z,4038
2023-04-16T15:39:19.752Z,3215
2023-04-16T15:40:33.991Z,2609
2023-04-16T15:41:48.209Z,2280
2023-04-16T15:43:02.437Z,2057
2023-04-16T15:44:16.744Z,2365
2023-04-16T15:45:30.977Z,2317
2023-04-16T15:47:59.421Z,1869
2023-04-16T15:49:13.649Z,1992
2023-04-16T15:50:27.948Z,2265
2023-04-16T15:51:42.202Z,2489
2023-04-16T15:52:56.423Z,2619
2023-04-16T15:54:10.659Z,2897
2023-04-16T15:55:24.885Z,2994
2023-04-16T15:56:39.233Z,2915
2023-04-16T15:57:53.524Z,2640
2023-04-16T15:59:06.817Z,2370
2023-04-16T16:00:21.034Z,2213
2023-04-16T16:01:35.349Z,2173
2023-04-16T16:02:49.592Z,2325
2023-04-16T16:04:03.801Z,2729
2023-04-16T16:05:18.036Z,2926
2023-04-16T16:06:32.270Z,2918
2023-04-16T16:07:46.560Z,2711
2023-04-16T16:09:00.794Z,2390
2023-04-16T16:10:15.030Z,2180
2023-04-16T16:11:29.250Z,2223
2023-04-16T16:12:43.485Z,2219
2023-04-16T16:13:57.785Z,2335
2023-04-16T16:15:12.015Z,2445
2023-04-16T16:16:26.252Z,2379
2023-04-16T16:17:40.476Z,2247
2023-04-16T16:18:54.697Z,2296
2023-04-16T16:20:09.008Z,2248
2023-04-16T16:22:37.466Z,1899
2023-04-16T16:23:51.686Z,1738
2023-04-16T16:25:05.932Z,1747
2023-04-16T16:26:20.224Z,1770
2023-04-16T16:27:34.469Z,1844
2023-04-16T16:30:02.969Z,2092
2023-04-16T16:31:16.314Z,2207
2023-04-16T16:32:30.588Z,2262
2023-04-16T16:33:43.894Z,2122
2023-04-16T16:34:58.105Z,2050
2023-04-16T16:36:12.406Z,1914
2023-04-16T16:37:26.657Z,1884
2023-04-16T16:38:40.879Z,1931
2023-04-16T16:39:55.100Z,1848
2023-04-16T16:41:09.337Z,1769
2023-04-16T16:42:23.635Z,1569
2023-04-16T16:43:37.874Z,1501
2023-04-16T16:44:52.105Z,1562
2023-04-16T16:46:06.325Z,1531
2023-04-16T16:47:20.558Z,1505
2023-04-16T16:48:34.859Z,1464
2023-04-16T16:49:49.095Z,1472
2023-04-16T16:51:03.321Z,1449
2023-04-16T16:52:17.551Z,1443
2023-04-16T16:53:31.781Z,1420
2023-04-16T16:54:46.068Z,1313
2023-04-16T16:56:00.308Z,1211
2023-04-16T16:57:14.539Z,1098
2023-04-16T16:58:28.758Z,1014
2023-04-16T16:59:42.993Z,987
2023-04-16T17:00:57.294Z,896
2023-04-16T17:02:11.526Z,748
2023-04-16T17:03:25.749Z,671
2023-04-16T17:04:40.042Z,702
2023-04-16T17:05:53.386Z,730
2023-04-16T17:07:07.667Z,719
2023-04-16T17:08:20.961Z,680
2023-04-16T17:09:35.178Z,659
2023-04-16T17:10:49.479Z,621
2023-04-16T17:12:03.719Z,643
2023-04-16T17:13:17.956Z,627
2023-04-16T17:14:32.171Z,592
2023-04-16T17:15:46.391Z,600
2023-04-16T17:17:00.709Z,646
2023-04-16T17:18:14.944Z,655
2023-04-16T17:19:29.160Z,658
2023-04-16T17:20:43.399Z,674
2023-04-16T17:21:57.615Z,677
2023-04-16T17:23:11.922Z,649
2023-04-16T17:24:26.153Z,625
2023-04-16T17:25:40.388Z,600